Time;durP1;ratioP1;P1;durP2;ratioP2;P2;SDS_P1;SDS_P2;PMS_P1;PMS_P2;Temp;Humidity;BMP_temperature;BMP_pressure;BME280_temperature;BME280_humidity;BME280_pressure;Samples;Min_cycle;Max_cycle;Signal;HPM_P1;HPM_P2
2023/04/06 00:00:48;;;;;;;15.30;14.00;;;;;;;-0.64;88.40;92451.19;5110318;28;20236;-71
2023/04/06 00:03:14;;;;;;;15.33;13.87;;;;;;;-0.50;89.37;92456.94;5108955;28;20196;-72
2023/04/06 00:05:40;;;;;;;16.10;14.83;;;;;;;-0.47;89.52;92464.22;5109069;28;20219;-72
2023/04/06 00:08:05;;;;;;;17.87;15.77;;;;;;;-0.41;89.13;92459.00;5108755;28;20180;-71
2023/04/06 00:10:31;;;;;;;17.57;15.93;;;;;;;-0.43;89.25;92463.56;5109041;28;20228;-72
2023/04/06 00:12:58;;;;;;;17.27;15.60;;;;;;;-0.44;88.83;92458.66;5109795;28;20207;-72
2023/04/06 00:15:23;;;;;;;17.43;15.67;;;;;;;-0.61;90.36;92449.97;5100085;28;20306;-71
2023/04/06 00:17:49;;;;;;;16.50;15.00;;;;;;;-0.61;90.19;92445.63;5087929;28;20212;-72
2023/04/06 00:20:15;;;;;;;16.20;14.90;;;;;;;-0.67;90.64;92450.84;5086425;28;20228;-71
2023/04/06 00:22:41;;;;;;;18.10;16.40;;;;;;;-0.86;91.74;92459.53;5088818;28;20185;-71
2023/04/06 00:25:07;;;;;;;17.57;15.77;;;;;;;-0.99;92.31;92423.78;5096445;28;20227;-71
2023/04/06 00:27:32;;;;;;;16.40;14.97;;;;;;;-0.72;92.00;92443.00;5113073;28;21162;-71
2023/04/06 00:29:58;;;;;;;16.57;15.00;;;;;;;-0.75;91.53;92428.06;5112768;28;20232;-71
2023/04/06 00:32:23;;;;;;;16.37;14.90;;;;;;;-0.77;93.05;92437.75;5113288;28;20873;-71
2023/04/06 00:34:49;;;;;;;16.73;15.23;;;;;;;-0.65;92.56;92428.31;5112764;28;20289;-72
2023/04/06 00:37:14;;;;;;;16.80;15.30;;;;;;;-0.78;93.47;92425.94;5112509;28;20867;-72
2023/04/06 00:39:40;;;;;;;22.50;16.87;;;;;;;-0.69;92.99;92429.75;5112349;28;20235;-72
2023/04/06 00:42:14;;;;;;;17.50;15.73;;;;;;;-0.72;92.87;92425.06;5112841;28;20189;-71
2023/04/06 00:44:43;;;;;;;16.50;14.80;;;;;;;-1.00;93.65;92433.28;5111840;28;20249;-73
2023/04/06 00:47:09;;;;;;;17.90;16.00;;;;;;;-0.87;94.25;92424.66;5112337;28;20222;-72
2023/04/06 00:49:34;;;;;;;17.57;15.40;;;;;;;-0.81;94.40;92416.13;5112468;27;20228;-72
2023/04/06 00:52:01;;;;;;;18.37;15.60;;;;;;;-0.77;93.47;92430.06;5114528;28;20189;-72
2023/04/06 00:54:26;;;;;;;17.23;15.53;;;;;;;-0.81;92.85;92411.00;5112067;27;20227;-72
2023/04/06 00:56:52;;;;;;;19.20;17.50;;;;;;;-0.84;93.08;92421.69;5111525;28;20180;-72
2023/04/06 00:59:17;;;;;;;16.30;14.70;;;;;;;-1.18;93.35;92414.56;5112328;28;20203;-72
2023/04/06 01:01:43;;;;;;;17.23;15.67;;;;;;;-1.08;94.26;92433.56;5113091;28;20216;-72
2023/04/06 01:04:08;;;;;;;17.70;16.03;;;;;;;-0.98;92.11;92436.38;5111214;28;20218;-71
2023/04/06 01:06:34;;;;;;;16.63;15.20;;;;;;;-0.74;91.45;92427.06;5111814;27;20247;-71
2023/04/06 01:09:00;;;;;;;15.83;14.33;;;;;;;-0.73;91.30;92433.78;5113249;28;20220;-72
2023/04/06 01:11:26;;;;;;;15.80;14.37;;;;;;;-0.74;91.41;92416.81;5111642;28;20224;-72
2023/04/06 01:13:52;;;;;;;16.87;15.43;;;;;;;-0.65;89.69;92416.31;5112503;28;20231;-72
2023/04/06 01:16:17;;;;;;;14.10;13.00;;;;;;;-0.80;90.50;92413.34;5112219;28;20291;-72
2023/04/06 01:18:43;;;;;;;14.67;13.37;;;;;;;-0.99;89.09;92411.00;5112410;28;20179;-72
2023/04/06 01:21:15;;;;;;;15.47;14.17;;;;;;;-0.87;88.69;92404.16;5112196;28;20283;-72
2023/04/06 01:23:42;;;;;;;13.83;12.83;;;;;;;-1.02;90.07;92399.41;5112189;28;20218;-71
2023/04/06 01:26:08;;;;;;;16.47;14.97;;;;;;;-1.08;91.22;92410.50;5111392;28;20223;-72
2023/04/06 01:28:33;;;;;;;16.10;14.80;;;;;;;-1.18;91.17;92388.97;5111135;28;20204;-72
2023/04/06 01:30:59;;;;;;;15.30;13.77;;;;;;;-0.93;90.54;92400.66;5112164;28;20279;-72
2023/04/06 01:33:24;;;;;;;15.27;13.70;;;;;;;-0.77;88.81;92392.41;5110849;28;20211;-74
2023/04/06 01:35:50;;;;;;;14.47;13.27;;;;;;;-0.82;90.18;92411.97;5112156;27;20223;-72
2023/04/06 01:38:16;;;;;;;14.33;13.13;;;;;;;-1.02;87.74;92393.47;5110403;28;20179;-73
2023/04/06 01:40:41;;;;;;;15.00;13.63;;;;;;;-1.03;88.99;92408.09;5111219;27;20232;-73
2023/04/06 01:43:06;;;;;;;14.03;12.93;;;;;;;-0.84;88.30;92407.06;5111103;28;20200;-73
2023/04/06 01:45:32;;;;;;;14.67;13.47;;;;;;;-1.02;88.08;92367.88;5111124;28;20227;-73
2023/04/06 01:47:57;;;;;;;15.27;13.93;;;;;;;-0.91;87.91;92393.56;5112216;28;20195;-73
2023/04/06 01:50:23;;;;;;;15.23;14.10;;;;;;;-0.92;88.54;92386.84;5110857;28;20950;-73
2023/04/06 01:52:48;;;;;;;13.17;12.17;;;;;;;-1.03;87.27;92362.00;5112789;28;20184;-73
2023/04/06 01:55:13;;;;;;;14.17;12.87;;;;;;;-0.91;87.55;92395.34;5102510;28;20232;-73
2023/04/06 01:57:39;;;;;;;14.93;13.73;;;;;;;-0.92;87.22;92389.41;5092718;28;20902;-73
2023/04/06 02:00:05;;;;;;;13.23;12.13;;;;;;;-1.05;88.50;92376.00;5096630;28;20242;-72
2023/04/06 02:02:30;;;;;;;14.07;12.80;;;;;;;-1.11;88.44;92371.72;5110612;28;20180;-73
2023/04/06 02:04:56;;;;;;;14.50;13.30;;;;;;;-0.92;89.35;92394.53;5110574;28;20238;-72
2023/04/06 02:07:21;;;;;;;14.57;13.37;;;;;;;-1.18;87.44;92353.88;5111146;28;20192;-72
2023/04/06 02:09:47;;;;;;;14.97;13.57;;;;;;;-0.88;87.07;92384.66;5110444;28;20288;-73
2023/04/06 02:12:12;;;;;;;13.77;12.60;;;;;;;-0.85;87.74;92356.03;5111232;28;20204;-72
2023/04/06 02:14:37;;;;;;;14.67;13.57;;;;;;;-1.00;86.73;92360.75;5111384;28;20251;-72
2023/04/06 02:17:03;;;;;;;13.83;12.73;;;;;;;-0.74;87.28;92391.97;5110978;28;20184;-73
2023/04/06 02:19:28;;;;;;;17.07;15.40;;;;;;;-0.73;86.96;92372.28;5110292;28;20187;-73
2023/04/06 02:21:54;;;;;;;17.43;14.80;;;;;;;-0.51;87.60;92383.59;5110609;28;20188;-73
2023/04/06 02:24:19;;;;;;;18.20;16.40;;;;;;;-0.46;87.40;92384.50;5111382;27;20231;-74
2023/04/06 02:26:45;;;;;;;14.80;13.30;;;;;;;-0.55;86.41;92385.03;5110273;28;20181;-73
2023/04/06 02:29:10;;;;;;;13.97;12.67;;;;;;;-0.82;86.22;92342.78;5110421;28;21070;-72
2023/04/06 02:31:36;;;;;;;15.60;14.20;;;;;;;-0.70;87.06;92361.59;5110438;28;20212;-72
2023/04/06 02:34:01;;;;;;;14.40;13.10;;;;;;;-0.68;86.55;92375.72;5110414;28;20220;-72
2023/04/06 02:36:27;;;;;;;16.60;15.00;;;;;;;-0.56;87.96;92368.88;5109606;28;20224;-69
2023/04/06 02:38:52;;;;;;;15.27;13.97;;;;;;;-0.61;86.07;92391.03;5109776;28;20263;-69
2023/04/06 02:41:18;;;;;;;14.73;13.53;;;;;;;-0.50;85.99;92385.16;5110572;28;20275;-69
2023/04/06 02:43:43;;;;;;;14.27;12.87;;;;;;;-0.41;86.17;92389.00;5110186;28;20176;-69
2023/04/06 02:46:08;;;;;;;13.87;12.70;;;;;;;-0.62;85.85;92374.88;5110586;28;20261;-69
2023/04/06 02:48:36;;;;;;;13.87;12.67;;;;;;;-0.54;86.68;92376.34;5109828;28;20188;-69
2023/04/06 02:51:01;;;;;;;15.00;13.80;;;;;;;-0.52;85.60;92389.72;5109785;28;20239;-69
2023/04/06 02:53:27;;;;;;;13.43;12.30;;;;;;;-0.46;86.94;92387.06;5110253;28;20227;-69
2023/04/06 02:55:53;;;;;;;14.10;13.10;;;;;;;-0.40;85.45;92363.13;5110330;28;20232;-68
2023/04/06 02:58:18;;;;;;;14.17;12.93;;;;;;;-0.40;85.23;92378.50;5109506;28;20196;-69
2023/04/06 03:00:44;;;;;;;13.77;12.77;;;;;;;-0.42;84.90;92377.19;5110101;28;20236;-67
2023/04/06 03:03:09;;;;;;;14.00;12.97;;;;;;;-0.47;85.11;92369.34;5108858;28;20246;-70
2023/04/06 03:05:35;;;;;;;13.77;12.80;;;;;;;-0.38;89.37;92375.72;5110282;28;20219;-70
2023/04/06 03:08:00;;;;;;;14.57;13.37;;;;;;;-0.39;85.84;92380.06;5109931;28;20171;-69
2023/04/06 03:10:25;;;;;;;14.20;13.00;;;;;;;-0.52;85.83;92374.34;5111681;28;20295;-69
2023/04/06 03:12:51;;;;;;;13.80;12.63;;;;;;;-0.36;85.16;92378.88;5113035;28;20253;-69
2023/04/06 03:15:16;;;;;;;15.70;14.43;;;;;;;-0.43;86.10;92361.00;5110538;28;20239;-70
2023/04/06 03:17:42;;;;;;;13.80;12.70;;;;;;;-0.41;84.81;92365.91;5110656;28;20198;-70
2023/04/06 03:20:07;;;;;;;14.33;13.23;;;;;;;-0.66;85.84;92362.69;5109050;28;20223;-69
2023/04/06 03:22:33;;;;;;;12.53;11.57;;;;;;;-0.49;85.31;92367.00;5110529;28;20183;-69
2023/04/06 03:24:58;;;;;;;13.53;12.50;;;;;;;-0.30;86.08;92368.53;5108556;28;20242;-68
2023/04/06 03:27:24;;;;;;;12.97;12.17;;;;;;;-0.41;84.77;92364.13;5110867;28;20205;-68
2023/04/06 03:29:49;;;;;;;13.97;12.90;;;;;;;-0.46;85.32;92376.03;5108048;28;20224;-69
2023/04/06 03:32:14;;;;;;;14.33;13.17;;;;;;;-0.25;85.69;92375.56;5107066;28;20222;-69
2023/04/06 03:34:40;;;;;;;13.70;12.53;;;;;;;-0.18;87.79;92378.78;5108553;28;20227;-69
2023/04/06 03:37:05;;;;;;;14.33;13.07;;;;;;;-0.10;85.52;92375.91;5108500;28;20199;-70
2023/04/06 03:39:31;;;;;;;12.30;11.17;;;;;;;-0.07;86.87;92375.47;5108518;27;20172;-69
2023/04/06 03:41:57;;;;;;;13.47;12.43;;;;;;;-0.52;84.63;92358.97;5108372;28;20211;-69
2023/04/06 03:44:22;;;;;;;13.57;12.57;;;;;;;-0.40;84.40;92362.34;5108326;28;20187;-69
2023/04/06 03:46:47;;;;;;;12.30;11.30;;;;;;;-0.57;84.36;92351.94;5108015;28;20192;-67
2023/04/06 03:49:13;;;;;;;13.73;12.80;;;;;;;-0.38;87.62;92370.59;5108075;28;20187;-67
2023/04/06 03:51:38;;;;;;;13.27;12.03;;;;;;;-0.44;84.46;92381.72;5108045;28;20219;-67
2023/04/06 03:54:04;;;;;;;14.73;13.53;;;;;;;-0.61;84.28;92355.91;5108047;28;20211;-69
2023/04/06 03:56:29;;;;;;;13.43;12.43;;;;;;;-0.44;84.11;92376.59;5108644;28;20220;-69
2023/04/06 03:58:55;;;;;;;13.77;12.67;;;;;;;-0.45;84.33;92375.81;5108499;28;20195;-69
2023/04/06 04:01:20;;;;;;;13.43;12.47;;;;;;;-0.30;83.54;92368.53;5110880;28;20241;-68
2023/04/06 04:03:46;;;;;;;13.10;12.10;;;;;;;-0.56;83.44;92340.66;5112263;28;20195;-69
2023/04/06 04:06:11;;;;;;;13.53;12.53;;;;;;;-0.41;86.73;92345.41;5111812;27;20548;-72
2023/04/06 04:08:37;;;;;;;13.43;12.47;;;;;;;-0.25;83.07;92370.44;5112970;28;20207;-70
2023/04/06 04:11:02;;;;;;;12.67;11.77;;;;;;;-0.12;83.40;92377.91;5111081;27;20317;-68
2023/04/06 04:13:27;;;;;;;13.37;12.30;;;;;;;-0.13;82.41;92379.72;5111707;28;20528;-70
2023/04/06 04:15:53;;;;;;;12.53;11.27;;;;;;;-0.01;82.62;92364.31;5113337;28;20226;-75
2023/04/06 04:18:18;;;;;;;14.07;13.03;;;;;;;-0.21;83.65;92346.69;5113050;28;20192;-73
2023/04/06 04:20:44;;;;;;;12.73;11.83;;;;;;;-0.39;83.88;92338.28;5099839;28;20224;-68
2023/04/06 04:23:10;;;;;;;12.93;12.03;;;;;;;0.01;81.93;92380.28;5092295;28;20189;-70
2023/04/06 04:25:35;;;;;;;11.63;10.80;;;;;;;0.20;82.19;92368.94;5103865;28;20236;-74
2023/04/06 04:28:02;;;;;;;13.40;12.40;;;;;;;0.17;81.18;92382.22;5112174;28;20195;-73
2023/04/06 04:30:27;;;;;;;14.00;13.17;;;;;;;0.02;82.25;92358.00;5112032;27;20230;-74
2023/04/06 04:32:52;;;;;;;13.57;12.53;;;;;;;0.30;81.93;92382.00;5112993;28;20220;-74
2023/04/06 04:35:18;;;;;;;13.20;12.10;;;;;;;0.28;81.32;92378.84;5111863;27;20224;-73
2023/04/06 04:37:43;;;;;;;13.03;12.07;;;;;;;0.18;81.44;92370.16;5113037;28;20236;-72
2023/04/06 04:40:09;;;;;;;12.63;11.53;;;;;;;0.50;81.18;92387.56;5113107;27;20220;-74
2023/04/06 04:42:35;;;;;;;12.73;11.70;;;;;;;0.56;80.31;92389.25;5111568;28;20184;-74
2023/04/06 04:45:00;;;;;;;14.30;13.23;;;;;;;0.54;79.81;92387.91;5111511;28;20246;-73
2023/04/06 04:47:26;;;;;;;12.60;11.63;;;;;;;0.61;80.21;92397.06;5111987;28;20895;-73
2023/04/06 04:49:51;;;;;;;13.03;11.73;;;;;;;0.60;81.97;92358.78;5110870;28;20232;-74
2023/04/06 04:52:16;;;;;;;14.37;13.03;;;;;;;0.65;79.41;92377.66;5112429;28;20188;-74
2023/04/06 04:54:42;;;;;;;13.50;12.40;;;;;;;0.81;78.35;92379.53;5113512;28;20227;-73
2023/04/06 04:57:07;;;;;;;12.93;11.83;;;;;;;0.53;79.12;92374.28;5111704;28;20172;-73
2023/04/06 04:59:35;;;;;;;13.03;12.13;;;;;;;0.49;78.94;92368.06;5112822;28;20183;-73
2023/04/06 05:02:00;;;;;;;12.90;12.00;;;;;;;0.68;78.82;92386.69;5110832;28;20212;-74
2023/04/06 05:04:26;;;;;;;12.30;11.13;;;;;;;0.55;78.42;92372.28;5112563;28;20183;-74
2023/04/06 05:07:02;;;;;;;12.67;11.63;;;;;;;0.56;79.02;92389.25;5112516;28;20188;-73
2023/04/06 05:09:30;;;;;;;12.30;11.50;;;;;;;0.57;78.65;92370.28;5111997;27;20183;-73
2023/04/06 05:11:55;;;;;;;12.87;12.10;;;;;;;0.70;77.71;92388.03;5111813;28;20238;-69
2023/04/06 05:14:21;;;;;;;12.73;11.77;;;;;;;0.90;77.11;92380.72;5111937;27;20223;-71
2023/04/06 05:16:46;;;;;;;11.53;10.77;;;;;;;0.87;76.30;92381.19;5112835;28;20172;-67
2023/04/06 05:19:12;;;;;;;11.50;10.70;;;;;;;0.90;77.06;92374.84;5111140;28;20272;-70
2023/04/06 05:21:37;;;;;;;11.93;11.17;;;;;;;1.07;76.28;92398.81;5111295;28;20227;-69
2023/04/06 05:24:03;;;;;;;11.40;10.73;;;;;;;0.78;76.25;92333.72;5111870;28;20172;-69
2023/04/06 05:26:28;;;;;;;12.43;11.63;;;;;;;0.65;76.42;92356.31;5110689;28;20226;-70
2023/04/06 05:28:54;;;;;;;11.33;10.63;;;;;;;0.76;77.75;92405.13;5111230;28;20208;-69
2023/04/06 05:31:20;;;;;;;11.60;10.93;;;;;;;0.71;78.41;92397.31;5110734;27;20215;-68
2023/04/06 05:33:45;;;;;;;12.23;11.43;;;;;;;0.83;79.26;92405.78;5112363;28;20208;-69
2023/04/06 05:36:11;;;;;;;12.27;11.47;;;;;;;0.99;77.22;92405.09;5111921;27;20288;-69
2023/04/06 05:38:37;;;;;;;12.70;11.93;;;;;;;1.14;77.15;92407.97;5110836;28;20642;-70
2023/04/06 05:41:02;;;;;;;12.13;11.43;;;;;;;1.33;77.12;92406.03;5109426;28;20253;-69
2023/04/06 05:43:28;;;;;;;13.50;12.60;;;;;;;1.23;76.72;92403.28;5111746;28;20192;-70
2023/04/06 05:45:53;;;;;;;12.20;11.40;;;;;;;1.16;76.55;92400.81;5111606;27;20283;-69
2023/04/06 05:48:19;;;;;;;12.57;11.77;;;;;;;1.46;76.86;92406.53;5111291;28;20210;-69
2023/04/06 05:50:49;;;;;;;12.40;11.70;;;;;;;1.45;75.64;92399.06;5112475;28;20239;-69
2023/04/06 05:53:15;;;;;;;13.37;12.47;;;;;;;1.69;75.12;92395.41;5112972;28;20196;-69
2023/04/06 05:55:40;;;;;;;12.77;11.77;;;;;;;1.76;75.01;92403.00;5111339;28;20229;-69
2023/04/06 05:58:05;;;;;;;11.70;10.90;;;;;;;1.92;74.45;92384.22;5112301;28;20188;-69
2023/04/06 06:00:31;;;;;;;12.37;11.57;;;;;;;1.95;73.25;92391.47;5110464;28;20239;-69
2023/04/06 06:02:56;;;;;;;12.80;11.77;;;;;;;2.01;74.26;92390.56;5112147;28;20210;-69
2023/04/06 06:05:22;;;;;;;14.00;12.70;;;;;;;1.91;75.01;92382.66;5110648;27;20232;-69
2023/04/06 06:07:47;;;;;;;13.23;11.97;;;;;;;1.85;74.55;92363.00;5111621;28;20211;-69
2023/04/06 06:10:13;;;;;;;12.63;11.73;;;;;;;2.08;74.53;92368.00;5112078;28;20328;-69
2023/04/06 06:12:38;;;;;;;12.17;11.07;;;;;;;2.23;73.77;92387.06;5110950;28;20210;-70
2023/04/06 06:15:05;;;;;;;13.50;12.47;;;;;;;2.52;73.92;92390.34;5110156;28;20228;-70
2023/04/06 06:17:30;;;;;;;12.93;11.93;;;;;;;2.59;72.31;92380.66;5110654;28;20211;-70
2023/04/06 06:19:55;;;;;;;13.20;12.17;;;;;;;2.80;71.36;92397.97;5109540;28;20216;-69
2023/04/06 06:22:21;;;;;;;13.60;12.60;;;;;;;2.66;71.70;92392.34;5111269;28;20176;-69
2023/04/06 06:24:46;;;;;;;13.00;11.90;;;;;;;2.94;72.23;92394.06;5110635;27;20242;-70
2023/04/06 06:27:12;;;;;;;12.33;11.43;;;;;;;3.05;71.66;92403.47;5111161;28;20176;-70
2023/04/06 06:29:37;;;;;;;13.40;12.33;;;;;;;2.95;70.48;92400.75;5110130;27;20234;-70
2023/04/06 06:32:03;;;;;;;13.00;12.10;;;;;;;3.01;71.00;92394.66;5111687;28;20191;-68
2023/04/06 06:34:28;;;;;;;12.07;11.40;;;;;;;2.32;70.78;92390.81;5110555;28;20216;-69
2023/04/06 06:36:55;;;;;;;13.53;12.53;;;;;;;2.57;71.66;92391.19;5110136;28;20199;-69
2023/04/06 06:39:20;;;;;;;12.50;11.57;;;;;;;2.50;71.16;92382.06;5111497;28;20188;-70
2023/04/06 06:41:46;;;;;;;12.57;11.77;;;;;;;2.47;71.23;92392.84;5111253;28;20254;-69
2023/04/06 06:44:12;;;;;;;12.57;11.77;;;;;;;2.71;70.64;92389.06;5110282;28;20247;-70
2023/04/06 06:46:37;;;;;;;11.47;10.80;;;;;;;2.88;69.55;92385.44;5109782;27;20212;-69
2023/04/06 06:49:03;;;;;;;12.40;11.40;;;;;;;2.65;70.54;92390.00;5110293;28;20192;-69
2023/04/06 06:51:28;;;;;;;11.77;10.87;;;;;;;2.34;70.19;92370.75;5110832;27;20257;-69
2023/04/06 06:53:54;;;;;;;12.63;11.50;;;;;;;2.70;70.24;92395.25;5111424;28;20234;-70
2023/04/06 06:56:19;;;;;;;11.70;10.97;;;;;;;2.85;69.78;92410.91;5110302;28;20228;-69
2023/04/06 06:58:45;;;;;;;13.43;12.43;;;;;;;3.15;69.94;92388.91;5110183;28;20179;-69
2023/04/06 07:01:10;;;;;;;12.03;11.23;;;;;;;2.77;69.21;92394.06;5093230;28;20263;-69
2023/04/06 07:03:36;;;;;;;11.63;10.83;;;;;;;2.70;70.50;92377.19;5090476;28;20627;-70
2023/04/06 07:06:02;;;;;;;13.43;12.23;;;;;;;2.83;70.36;92387.94;5089203;28;20232;-69
2023/04/06 07:08:27;;;;;;;12.37;11.50;;;;;;;2.59;70.71;92375.50;5089763;28;20189;-70
2023/04/06 07:10:53;;;;;;;12.60;11.57;;;;;;;2.73;71.85;92382.69;5103553;28;20226;-70
2023/04/06 07:13:23;;;;;;;12.73;11.83;;;;;;;2.56;71.23;92339.91;5109921;28;20188;-70
2023/04/06 07:15:51;;;;;;;12.07;11.20;;;;;;;2.83;72.04;92371.72;5108962;28;20261;-70
2023/04/06 07:18:20;;;;;;;12.07;11.17;;;;;;;2.68;72.03;92374.88;5109402;28;20172;-69
2023/04/06 07:20:46;;;;;;;12.33;11.43;;;;;;;2.58;70.88;92373.94;5110845;28;20218;-69
2023/04/06 07:23:11;;;;;;;11.83;10.80;;;;;;;2.83;71.54;92382.78;5109994;28;20183;-69
2023/04/06 07:25:37;;;;;;;12.63;11.57;;;;;;;3.20;70.37;92380.47;5109396;28;20223;-70
2023/04/06 07:28:03;;;;;;;12.30;11.47;;;;;;;3.10;69.90;92396.59;5109786;28;20225;-69
2023/04/06 07:30:29;;;;;;;12.53;11.63;;;;;;;3.13;70.71;92393.53;5108830;27;20223;-69
2023/04/06 07:32:58;;;;;;;13.17;11.93;;;;;;;3.21;70.38;92390.53;5109073;28;20180;-70
2023/04/06 07:35:26;;;;;;;13.07;12.23;;;;;;;2.98;70.23;92377.06;5108643;27;20220;-70
2023/04/06 07:37:51;;;;;;;12.40;11.60;;;;;;;2.90;69.48;92385.22;5110369;28;20192;-70
2023/04/06 07:40:17;;;;;;;14.07;12.97;;;;;;;2.49;70.41;92370.22;5109830;28;20215;-70
2023/04/06 07:42:43;;;;;;;11.77;10.87;;;;;;;2.75;71.15;92365.19;5109562;28;20799;-69
2023/04/06 07:45:09;;;;;;;13.43;12.20;;;;;;;3.04;70.16;92386.44;5108732;28;20227;-69
2023/04/06 07:47:34;;;;;;;14.20;12.73;;;;;;;3.14;70.72;92381.41;5109537;28;20198;-69
2023/04/06 07:50:00;;;;;;;13.97;12.77;;;;;;;3.37;70.42;92380.38;5110368;28;20224;-70
2023/04/06 07:52:25;;;;;;;12.80;11.90;;;;;;;3.40;69.83;92378.13;5110276;28;20195;-69
2023/04/06 07:54:51;;;;;;;12.87;12.07;;;;;;;3.45;68.14;92372.22;5110044;27;20223;-70
2023/04/06 07:57:18;;;;;;;11.17;10.53;;;;;;;3.90;66.57;92376.09;5108672;28;20271;-70
2023/04/06 07:59:43;;;;;;;14.20;13.20;;;;;;;3.95;65.77;92381.31;5108963;27;20231;-70
2023/04/06 08:02:09;;;;;;;11.93;11.07;;;;;;;3.63;66.16;92357.22;5108454;28;20220;-69
2023/04/06 08:04:35;;;;;;;13.10;12.13;;;;;;;3.62;67.17;92375.53;5109291;28;20216;-69
2023/04/06 08:07:00;;;;;;;12.57;11.50;;;;;;;3.91;66.84;92379.44;5109846;28;20191;-70
2023/04/06 08:09:26;;;;;;;12.77;11.83;;;;;;;3.74;65.29;92358.88;5108918;27;20881;-70
2023/04/06 08:11:52;;;;;;;11.83;11.00;;;;;;;4.15;64.04;92381.50;5109795;28;20748;-69
2023/04/06 08:14:17;;;;;;;13.23;12.33;;;;;;;4.13;64.40;92354.31;5108785;27;20208;-71
2023/04/06 08:16:43;;;;;;;12.33;10.93;;;;;;;3.76;65.50;92380.06;5109844;28;20180;-70
2023/04/06 08:19:09;;;;;;;11.97;11.03;;;;;;;4.07;63.99;92379.34;5109249;28;20188;-70
2023/04/06 08:21:35;;;;;;;11.73;10.93;;;;;;;3.65;64.64;92375.81;5108719;28;20227;-69
2023/04/06 08:24:01;;;;;;;11.37;10.43;;;;;;;3.61;66.01;92387.63;5110555;28;20176;-69
2023/04/06 08:26:27;;;;;;;12.27;11.27;;;;;;;3.52;65.16;92350.38;5090549;28;20288;-69
2023/04/06 08:28:52;;;;;;;12.17;11.33;;;;;;;3.53;65.99;92382.13;5088329;28;20216;-70
2023/04/06 08:31:18;;;;;;;12.33;11.53;;;;;;;3.76;66.04;92382.66;5105499;28;20220;-70
2023/04/06 08:33:43;;;;;;;13.83;12.63;;;;;;;3.52;65.11;92385.75;5109807;28;20212;-69
2023/04/06 08:36:14;;;;;;;13.80;12.70;;;;;;;3.59;66.29;92376.78;5109746;28;20788;-69
2023/04/06 08:38:41;;;;;;;12.43;11.57;;;;;;;3.88;65.02;92385.06;5109210;28;20194;-69
2023/04/06 08:41:10;;;;;;;13.00;11.83;;;;;;;4.10;65.42;92380.66;5109230;28;20223;-69
2023/04/06 08:43:57;;;;;;;12.10;11.20;;;;;;;3.82;66.43;92386.84;5108908;28;20199;-69
2023/04/06 08:46:29;;;;;;;13.20;12.10;;;;;;;4.14;66.14;92374.00;5109898;27;20224;-70
2023/04/06 08:48:55;;;;;;;13.40;12.37;;;;;;;3.88;66.37;92385.88;5112689;28;20255;-70
2023/04/06 08:51:26;;;;;;;13.30;12.30;;;;;;;4.16;66.77;92380.44;5112988;28;20222;-70
2023/04/06 08:53:56;;;;;;;14.00;13.13;;;;;;;4.02;66.11;92374.13;5113978;28;20212;-70
2023/04/06 08:56:23;;;;;;;14.83;13.67;;;;;;;4.16;67.07;92382.25;5113773;27;20881;-69
2023/04/06 08:58:49;;;;;;;14.10;12.37;;;;;;;4.41;68.03;92372.91;5113156;28;20196;-70
2023/04/06 09:01:17;;;;;;;13.97;12.87;;;;;;;4.55;65.20;92381.81;5111789;28;20249;-70
2023/04/06 09:03:44;;;;;;;12.30;11.40;;;;;;;3.58;64.36;92322.84;5113112;28;20200;-69
2023/04/06 09:06:11;;;;;;;12.10;11.07;;;;;;;3.98;63.62;92372.28;5113156;27;20231;-70
2023/04/06 09:08:40;;;;;;;11.93;11.13;;;;;;;4.17;63.09;92382.00;5112116;28;20185;-70
2023/04/06 09:11:06;;;;;;;12.30;11.40;;;;;;;4.26;65.26;92388.31;5111860;28;20216;-69
2023/04/06 09:13:32;;;;;;;12.87;11.90;;;;;;;4.29;66.51;92385.22;5113591;28;20246;-69
2023/04/06 09:16:05;;;;;;;13.30;12.30;;;;;;;4.06;64.63;92372.59;5110563;28;20227;-70
2023/04/06 09:18:32;;;;;;;14.30;12.90;;;;;;;4.32;66.30;92382.16;5113418;28;20180;-69
2023/04/06 09:21:00;;;;;;;12.60;11.80;;;;;;;4.50;63.05;92374.00;5112340;27;20220;-70
2023/04/06 09:23:25;;;;;;;12.63;11.63;;;;;;;4.36;65.00;92380.63;5111966;28;20191;-69
2023/04/06 09:25:51;;;;;;;13.73;12.60;;;;;;;3.74;66.38;92356.28;5110152;27;20223;-69
2023/04/06 09:28:16;;;;;;;13.17;12.07;;;;;;;4.01;63.57;92382.91;5113619;28;20192;-70
2023/04/06 09:30:49;;;;;;;12.70;11.70;;;;;;;4.34;63.56;92380.09;5111099;28;20227;-69
2023/04/06 09:33:22;;;;;;;13.17;12.07;;;;;;;4.39;64.39;92387.13;5111938;28;20199;-69
2023/04/06 09:35:50;;;;;;;12.90;11.83;;;;;;;4.39;64.65;92393.06;5112188;28;20223;-70
2023/04/06 09:38:16;;;;;;;12.97;11.93;;;;;;;4.33;64.48;92381.13;5112761;28;20207;-69
2023/04/06 09:40:49;;;;;;;13.47;12.37;;;;;;;4.63;64.60;92376.19;5112051;28;20231;-69
2023/04/06 09:43:26;;;;;;;12.60;11.57;;;;;;;4.54;62.44;92388.03;5111757;28;20195;-69
2023/04/06 09:45:53;;;;;;;13.07;12.17;;;;;;;4.39;63.40;92381.94;5110574;28;20227;-69
2023/04/06 09:48:21;;;;;;;14.23;13.00;;;;;;;4.34;64.72;92374.16;5112005;28;20190;-69
2023/04/06 09:50:56;;;;;;;12.63;11.73;;;;;;;4.29;64.10;92385.22;5111233;28;20212;-69
2023/04/06 09:53:24;;;;;;;13.60;12.43;;;;;;;4.11;64.42;92388.16;5110375;28;20194;-68
2023/04/06 09:55:56;;;;;;;12.97;11.87;;;;;;;4.02;64.00;92387.03;5110728;27;20232;-69
2023/04/06 09:58:26;;;;;;;14.93;13.83;;;;;;;4.06;65.07;92385.50;5110075;28;20190;-70
2023/04/06 10:00:57;;;;;;;14.73;13.50;;;;;;;3.75;65.25;92381.06;5110830;27;20239;-69
2023/04/06 10:03:42;;;;;;;15.23;14.13;;;;;;;4.10;65.46;92390.97;5111265;28;20192;-70
2023/04/06 10:06:11;;;;;;;13.47;12.27;;;;;;;4.46;64.13;92388.47;5113071;27;20239;-69
2023/04/06 10:08:42;;;;;;;14.13;12.90;;;;;;;4.02;63.88;92381.88;5111406;28;20176;-70
2023/04/06 10:11:09;;;;;;;14.77;13.47;;;;;;;4.29;65.16;92387.03;5111651;28;20253;-69
2023/04/06 10:13:35;;;;;;;14.07;12.87;;;;;;;4.42;65.71;92378.88;5110800;28;20203;-69
2023/04/06 10:16:01;;;;;;;15.43;14.03;;;;;;;4.31;63.85;92370.25;5111309;28;20310;-69
2023/04/06 10:18:27;;;;;;;14.00;12.73;;;;;;;4.31;63.41;92385.75;5110605;28;20188;-69
2023/04/06 10:21:02;;;;;;;15.20;13.90;;;;;;;4.52;63.49;92377.13;5109894;28;20330;-69
2023/04/06 10:23:44;;;;;;;13.83;12.73;;;;;;;4.37;63.85;92374.41;5110497;28;20232;-71
2023/04/06 10:26:20;;;;;;;14.50;13.07;;;;;;;4.61;62.88;92365.31;5110392;28;20956;-70
2023/04/06 10:28:46;;;;;;;14.87;13.37;;;;;;;4.79;61.75;92380.41;5109525;28;20183;-69
2023/04/06 10:31:12;;;;;;;14.77;13.33;;;;;;;4.21;62.97;92370.16;5108950;28;20280;-70
2023/04/06 10:33:38;;;;;;;14.93;13.73;;;;;;;4.52;62.95;92364.22;5111453;28;20215;-70
2023/04/06 10:36:14;;;;;;;15.13;13.80;;;;;;;4.80;63.21;92376.81;5109551;28;20251;-70
2023/04/06 10:38:41;;;;;;;16.77;13.77;;;;;;;4.92;62.75;92382.59;5110472;28;20167;-70
2023/04/06 10:41:09;;;;;;;14.47;12.97;;;;;;;4.83;61.72;92372.94;5111026;27;20835;-69
2023/04/06 10:43:36;;;;;;;16.10;14.60;;;;;;;4.91;62.02;92369.91;5110827;28;20164;-69
2023/04/06 10:46:02;;;;;;;14.30;13.20;;;;;;;4.69;61.59;92374.41;5107007;28;20223;-69
2023/04/06 10:48:42;;;;;;;14.43;13.23;;;;;;;4.70;61.88;92379.31;5110318;28;20176;-69
2023/04/06 10:51:12;;;;;;;14.00;12.17;;;;;;;4.51;61.69;92369.63;5109285;28;20219;-70
2023/04/06 10:53:44;;;;;;;14.30;13.17;;;;;;;4.52;62.20;92374.56;5110873;28;20271;-70
2023/04/06 10:56:14;;;;;;;15.33;14.20;;;;;;;4.96;62.75;92378.44;5110831;28;20220;-69
2023/04/06 10:58:52;;;;;;;15.10;13.77;;;;;;;5.35;61.62;92380.75;5110124;28;20180;-70
2023/04/06 11:01:20;;;;;;;14.67;13.47;;;;;;;4.94;62.13;92377.94;5109265;28;20301;-70
2023/04/06 11:03:53;;;;;;;15.63;14.13;;;;;;;4.64;62.76;92375.16;5107082;28;20203;-71
2023/04/06 11:06:24;;;;;;;15.00;13.60;;;;;;;4.67;63.78;92363.53;5111181;28;20242;-69
2023/04/06 11:08:51;;;;;;;13.87;12.63;;;;;;;5.03;62.97;92372.31;5110518;28;20248;-70
2023/04/06 11:11:18;;;;;;;15.23;13.90;;;;;;;4.83;64.23;92368.56;5111817;27;20292;-70
2023/04/06 11:13:56;;;;;;;14.00;13.00;;;;;;;4.51;62.87;92370.41;5109167;28;20199;-68
2023/04/06 11:16:26;;;;;;;14.43;13.27;;;;;;;4.45;63.06;92350.72;5109367;28;20287;-67
2023/04/06 11:18:58;;;;;;;15.07;13.77;;;;;;;4.90;62.24;92363.19;5111590;28;20272;-69